sensor_id;sensor_type;location;lat;lon;timestamp;pressure;altitude;pressure_sealevel;temperature;humidity
13581;BME280;6861;46.170;7.222;2024-03-29T00:00:37;94763.44;;;8.01;51.79
13581;BME280;6861;46.170;7.222;2024-03-29T00:03:04;94744.56;;;8.14;51.93
13581;BME280;6861;46.170;7.222;2024-03-29T00:05:30;94745.22;;;8.25;51.23
13581;BME280;6861;46.170;7.222;2024-03-29T00:07:56;94736.81;;;8.33;50.39
13581;BME280;6861;46.170;7.222;2024-03-29T00:10:22;94745.25;;;8.43;50.17
13581;BME280;6861;46.170;7.222;2024-03-29T00:12:49;94732.66;;;8.50;50.18
13581;BME280;6861;46.170;7.222;2024-03-29T00:15:15;94725.84;;;8.54;50.48
13581;BME280;6861;46.170;7.222;2024-03-29T00:17:42;94733.88;;;8.58;49.73
13581;BME280;6861;46.170;7.222;2024-03-29T00:20:09;94729.44;;;8.59;50.07
13581;BME280;6861;46.170;7.222;2024-03-29T00:22:36;94723.22;;;8.54;49.49
13581;BME280;6861;46.170;7.222;2024-03-29T00:25:02;94723.78;;;8.51;50.23
13581;BME280;6861;46.170;7.222;2024-03-29T00:27:28;94724.91;;;8.45;50.53
13581;BME280;6861;46.170;7.222;2024-03-29T00:29:54;94729.69;;;8.38;50.92
13581;BME280;6861;46.170;7.222;2024-03-29T00:32:20;94738.09;;;8.30;50.56
13581;BME280;6861;46.170;7.222;2024-03-29T00:34:49;94736.91;;;8.22;50.96
13581;BME280;6861;46.170;7.222;2024-03-29T00:37:16;94730.47;;;8.15;50.12
13581;BME280;6861;46.170;7.222;2024-03-29T00:39:42;94723.44;;;8.15;50.15
13581;BME280;6861;46.170;7.222;2024-03-29T00:42:08;94724.41;;;8.19;50.82
13581;BME280;6861;46.170;7.222;2024-03-29T00:44:35;94726.69;;;8.26;50.07
13581;BME280;6861;46.170;7.222;2024-03-29T00:47:01;94724.47;;;8.38;49.23
13581;BME280;6861;46.170;7.222;2024-03-29T00:49:27;94722.88;;;8.42;49.21
13581;BME280;6861;46.170;7.222;2024-03-29T00:51:55;94728.63;;;8.39;49.51
13581;BME280;6861;46.170;7.222;2024-03-29T00:54:21;94733.38;;;8.32;50.69
13581;BME280;6861;46.170;7.222;2024-03-29T00:56:47;94742.09;;;8.22;50.31
13581;BME280;6861;46.170;7.222;2024-03-29T00:59:13;94745.31;;;8.14;50.50
13581;BME280;6861;46.170;7.222;2024-03-29T01:01:39;94745.09;;;8.11;51.06
13581;BME280;6861;46.170;7.222;2024-03-29T01:04:05;94759.28;;;8.00;50.60
13581;BME280;6861;46.170;7.222;2024-03-29T01:06:32;94758.63;;;7.89;51.47
13581;BME280;6861;46.170;7.222;2024-03-29T01:08:59;94758.75;;;7.79;51.94
13581;BME280;6861;46.170;7.222;2024-03-29T01:11:25;94774.72;;;7.72;52.30
13581;BME280;6861;46.170;7.222;2024-03-29T01:13:52;94766.41;;;7.70;51.49
13581;BME280;6861;46.170;7.222;2024-03-29T01:16:18;94775.81;;;7.66;52.61
13581;BME280;6861;46.170;7.222;2024-03-29T01:18:45;94776.34;;;7.63;52.89
13581;BME280;6861;46.170;7.222;2024-03-29T01:21:12;94785.75;;;7.59;51.79
13581;BME280;6861;46.170;7.222;2024-03-29T01:23:38;94784.25;;;7.53;52.19
13581;BME280;6861;46.170;7.222;2024-03-29T01:26:06;94780.38;;;7.50;52.37
13581;BME280;6861;46.170;7.222;2024-03-29T01:28:32;94777.00;;;7.50;52.77
13581;BME280;6861;46.170;7.222;2024-03-29T01:30:59;94772.78;;;7.54;52.26
13581;BME280;6861;46.170;7.222;2024-03-29T01:33:25;94778.22;;;7.57;52.49
13581;BME280;6861;46.170;7.222;2024-03-29T01:35:51;94769.59;;;7.62;52.04
13581;BME280;6861;46.170;7.222;2024-03-29T01:38:17;94742.47;;;7.68;51.99
13581;BME280;6861;46.170;7.222;2024-03-29T01:40:43;94756.47;;;7.72;51.35
13581;BME280;6861;46.170;7.222;2024-03-29T01:43:11;94762.41;;;7.78;52.25
13581;BME280;6861;46.170;7.222;2024-03-29T01:45:39;94735.78;;;7.81;51.40
13581;BME280;6861;46.170;7.222;2024-03-29T01:48:06;94731.09;;;7.83;51.30
13581;BME280;6861;46.170;7.222;2024-03-29T01:50:35;94745.88;;;7.87;50.92
13581;BME280;6861;46.170;7.222;2024-03-29T01:53:05;94745.28;;;7.96;51.96
13581;BME280;6861;46.170;7.222;2024-03-29T01:55:32;94728.81;;;8.00;51.19
13581;BME280;6861;46.170;7.222;2024-03-29T01:58:00;94723.81;;;8.04;50.57
13581;BME280;6861;46.170;7.222;2024-03-29T02:00:30;94756.84;;;8.08;50.91
13581;BME280;6861;46.170;7.222;2024-03-29T02:02:57;94742.44;;;8.16;50.07
13581;BME280;6861;46.170;7.222;2024-03-29T02:05:24;94731.47;;;8.19;50.90
13581;BME280;6861;46.170;7.222;2024-03-29T02:07:52;94740.91;;;8.15;51.14
13581;BME280;6861;46.170;7.222;2024-03-29T02:10:22;94724.81;;;8.08;51.34
13581;BME280;6861;46.170;7.222;2024-03-29T02:12:49;94727.81;;;7.96;51.62
13581;BME280;6861;46.170;7.222;2024-03-29T02:15:16;94744.38;;;7.81;51.13
13581;BME280;6861;46.170;7.222;2024-03-29T02:17:45;94751.31;;;7.67;51.86
13581;BME280;6861;46.170;7.222;2024-03-29T02:20:12;94742.06;;;7.56;52.01
13581;BME280;6861;46.170;7.222;2024-03-29T02:22:46;94744.16;;;7.54;51.96
13581;BME280;6861;46.170;7.222;2024-03-29T02:25:15;94748.88;;;7.52;52.08
13581;BME280;6861;46.170;7.222;2024-03-29T02:27:43;94755.66;;;7.48;53.19
13581;BME280;6861;46.170;7.222;2024-03-29T02:30:13;94752.28;;;7.47;52.47
13581;BME280;6861;46.170;7.222;2024-03-29T02:32:40;94750.75;;;7.46;53.25
13581;BME280;6861;46.170;7.222;2024-03-29T02:35:08;94753.84;;;7.48;52.64
13581;BME280;6861;46.170;7.222;2024-03-29T02:37:35;94759.31;;;7.47;53.54
13581;BME280;6861;46.170;7.222;2024-03-29T02:40:03;94740.09;;;7.43;53.35
13581;BME280;6861;46.170;7.222;2024-03-29T02:42:32;94740.66;;;7.40;52.99
13581;BME280;6861;46.170;7.222;2024-03-29T02:44:59;94754.44;;;7.40;52.63
13581;BME280;6861;46.170;7.222;2024-03-29T02:47:26;94734.34;;;7.46;53.33
13581;BME280;6861;46.170;7.222;2024-03-29T02:49:53;94751.97;;;7.54;52.26
13581;BME280;6861;46.170;7.222;2024-03-29T02:52:19;94745.13;;;7.63;52.09
13581;BME280;6861;46.170;7.222;2024-03-29T02:54:46;94740.38;;;7.70;52.59
13581;BME280;6861;46.170;7.222;2024-03-29T02:57:12;94757.41;;;7.81;52.49
13581;BME280;6861;46.170;7.222;2024-03-29T02:59:41;94745.34;;;7.90;51.48
13581;BME280;6861;46.170;7.222;2024-03-29T03:02:08;94760.69;;;7.92;52.57
13581;BME280;6861;46.170;7.222;2024-03-29T03:04:35;94754.13;;;7.95;52.00
13581;BME280;6861;46.170;7.222;2024-03-29T03:07:01;94771.38;;;7.90;51.71
13581;BME280;6861;46.170;7.222;2024-03-29T03:09:42;94745.34;;;7.90;51.91
13581;BME280;6861;46.170;7.222;2024-03-29T03:12:28;94747.38;;;7.94;52.19
13581;BME280;6861;46.170;7.222;2024-03-29T03:14:57;94748.88;;;8.00;52.36
13581;BME280;6861;46.170;7.222;2024-03-29T03:17:25;94741.56;;;8.02;52.61
13581;BME280;6861;46.170;7.222;2024-03-29T03:19:52;94760.28;;;8.04;51.81
13581;BME280;6861;46.170;7.222;2024-03-29T03:22:18;94754.09;;;8.00;52.52
13581;BME280;6861;46.170;7.222;2024-03-29T03:24:45;94749.50;;;7.92;51.88
13581;BME280;6861;46.170;7.222;2024-03-29T03:27:12;94737.03;;;7.88;52.82
13581;BME280;6861;46.170;7.222;2024-03-29T03:29:39;94742.78;;;7.85;52.92
13581;BME280;6861;46.170;7.222;2024-03-29T03:32:07;94733.50;;;7.79;52.28
13581;BME280;6861;46.170;7.222;2024-03-29T03:34:34;94736.94;;;7.75;53.61
13581;BME280;6861;46.170;7.222;2024-03-29T03:37:00;94730.72;;;7.71;53.88
13581;BME280;6861;46.170;7.222;2024-03-29T03:39:27;94733.59;;;7.69;53.44
13581;BME280;6861;46.170;7.222;2024-03-29T03:41:53;94740.88;;;7.72;53.30
13581;BME280;6861;46.170;7.222;2024-03-29T03:44:20;94731.22;;;7.73;54.03
13581;BME280;6861;46.170;7.222;2024-03-29T03:46:47;94726.28;;;7.71;52.74
13581;BME280;6861;46.170;7.222;2024-03-29T03:49:16;94734.09;;;7.71;53.14
13581;BME280;6861;46.170;7.222;2024-03-29T03:51:43;94740.13;;;7.67;53.37
13581;BME280;6861;46.170;7.222;2024-03-29T03:54:11;94744.00;;;7.69;54.18
13581;BME280;6861;46.170;7.222;2024-03-29T03:56:37;94746.06;;;7.72;53.42
13581;BME280;6861;46.170;7.222;2024-03-29T03:59:04;94724.75;;;7.70;52.88
13581;BME280;6861;46.170;7.222;2024-03-29T04:01:30;94721.63;;;7.68;53.06
13581;BME280;6861;46.170;7.222;2024-03-29T04:03:57;94726.28;;;7.71;54.36
13581;BME280;6861;46.170;7.222;2024-03-29T04:06:25;94736.16;;;7.74;54.16
13581;BME280;6861;46.170;7.222;2024-03-29T04:08:53;94732.50;;;7.75;53.60
13581;BME280;6861;46.170;7.222;2024-03-29T04:11:19;94725.75;;;7.74;53.80
13581;BME280;6861;46.170;7.222;2024-03-29T04:13:46;94709.84;;;7.76;53.98
13581;BME280;6861;46.170;7.222;2024-03-29T04:16:12;94694.50;;;7.74;53.82
13581;BME280;6861;46.170;7.222;2024-03-29T04:18:39;94695.28;;;7.75;53.63
13581;BME280;6861;46.170;7.222;2024-03-29T04:21:05;94716.31;;;7.78;53.30
13581;BME280;6861;46.170;7.222;2024-03-29T04:23:34;94728.50;;;7.83;54.09
13581;BME280;6861;46.170;7.222;2024-03-29T04:26:00;94713.63;;;7.83;53.95
13581;BME280;6861;46.170;7.222;2024-03-29T04:28:27;94706.31;;;7.85;53.04
13581;BME280;6861;46.170;7.222;2024-03-29T04:30:54;94722.94;;;7.89;53.26
13581;BME280;6861;46.170;7.222;2024-03-29T04:33:22;94725.50;;;7.95;53.29
13581;BME280;6861;46.170;7.222;2024-03-29T04:35:55;94725.72;;;7.98;53.66
13581;BME280;6861;46.170;7.222;2024-03-29T04:38:23;94720.50;;;7.98;52.43
13581;BME280;6861;46.170;7.222;2024-03-29T04:40:53;94713.75;;;7.97;53.59
13581;BME280;6861;46.170;7.222;2024-03-29T04:43:22;94727.53;;;7.98;52.41
13581;BME280;6861;46.170;7.222;2024-03-29T04:45:49;94724.16;;;7.97;53.42
13581;BME280;6861;46.170;7.222;2024-03-29T04:48:17;94719.19;;;8.01;52.67
13581;BME280;6861;46.170;7.222;2024-03-29T04:50:44;94713.91;;;8.06;52.71
13581;BME280;6861;46.170;7.222;2024-03-29T04:53:11;94711.31;;;8.06;52.89
13581;BME280;6861;46.170;7.222;2024-03-29T04:55:40;94698.28;;;8.06;53.18
13581;BME280;6861;46.170;7.222;2024-03-29T04:58:09;94718.84;;;8.07;52.28
13581;BME280;6861;46.170;7.222;2024-03-29T05:00:36;94717.50;;;8.10;52.37
13581;BME280;6861;46.170;7.222;2024-03-29T05:03:04;94715.19;;;8.08;52.98
13581;BME280;6861;46.170;7.222;2024-03-29T05:05:32;94708.13;;;8.09;52.17
13581;BME280;6861;46.170;7.222;2024-03-29T05:07:59;94708.06;;;8.14;52.94
13581;BME280;6861;46.170;7.222;2024-03-29T05:10:26;94703.31;;;8.21;51.92
13581;BME280;6861;46.170;7.222;2024-03-29T05:12:53;94718.38;;;8.24;52.63
13581;BME280;6861;46.170;7.222;2024-03-29T05:15:22;94702.19;;;8.27;51.90
13581;BME280;6861;46.170;7.222;2024-03-29T05:17:49;94698.31;;;8.25;52.59
13581;BME280;6861;46.170;7.222;2024-03-29T05:20:16;94695.75;;;8.19;52.33
13581;BME280;6861;46.170;7.222;2024-03-29T05:22:43;94692.09;;;8.20;53.13
13581;BME280;6861;46.170;7.222;2024-03-29T05:25:10;94698.31;;;8.25;52.72
13581;BME280;6861;46.170;7.222;2024-03-29T05:27:37;94714.16;;;8.28;51.96
13581;BME280;6861;46.170;7.222;2024-03-29T05:30:06;94714.66;;;8.30;52.78
13581;BME280;6861;46.170;7.222;2024-03-29T05:32:36;94709.94;;;8.32;52.47
13581;BME280;6861;46.170;7.222;2024-03-29T05:35:04;94714.38;;;8.32;52.67
13581;BME280;6861;46.170;7.222;2024-03-29T05:37:32;94715.59;;;8.39;52.70
13581;BME280;6861;46.170;7.222;2024-03-29T05:39:59;94732.94;;;8.49;52.10
13581;BME280;6861;46.170;7.222;2024-03-29T05:42:26;94732.59;;;8.56;52.34
13581;BME280;6861;46.170;7.222;2024-03-29T05:44:53;94729.06;;;8.65;52.18
13581;BME280;6861;46.170;7.222;2024-03-29T05:47:20;94742.22;;;8.74;51.50
13581;BME280;6861;46.170;7.222;2024-03-29T05:49:49;94756.19;;;8.83;51.51
13581;BME280;6861;46.170;7.222;2024-03-29T05:52:17;94754.97;;;8.94;50.73
13581;BME280;6861;46.170;7.222;2024-03-29T05:54:46;94761.38;;;9.02;50.66
13581;BME280;6861;46.170;7.222;2024-03-29T05:57:13;94769.16;;;9.07;50.74
13581;BME280;6861;46.170;7.222;2024-03-29T05:59:41;94770.41;;;9.09;50.25
13581;BME280;6861;46.170;7.222;2024-03-29T06:02:08;94760.94;;;9.13;50.90
13581;BME280;6861;46.170;7.222;2024-03-29T06:04:35;94753.03;;;9.18;50.18
13581;BME280;6861;46.170;7.222;2024-03-29T06:07:05;94769.53;;;9.33;50.44
13581;BME280;6861;46.170;7.222;2024-03-29T06:09:34;94773.03;;;9.42;49.95
13581;BME280;6861;46.170;7.222;2024-03-29T06:12:01;94762.22;;;9.48;49.47
13581;BME280;6861;46.170;7.222;2024-03-29T06:14:31;94763.28;;;9.61;49.65
13581;BME280;6861;46.170;7.222;2024-03-29T06:17:15;94761.28;;;9.72;48.45
13581;BME280;6861;46.170;7.222;2024-03-29T06:19:52;94756.06;;;9.85;48.11
13581;BME280;6861;46.170;7.222;2024-03-29T06:22:23;94754.16;;;10.05;47.86
13581;BME280;6861;46.170;7.222;2024-03-29T06:24:51;94750.59;;;10.28;47.07
13581;BME280;6861;46.170;7.222;2024-03-29T06:27:19;94749.09;;;10.49;46.59
13581;BME280;6861;46.170;7.222;2024-03-29T06:29:49;94747.31;;;10.72;45.83
13581;BME280;6861;46.170;7.222;2024-03-29T06:32:16;94736.09;;;10.94;45.23
13581;BME280;6861;46.170;7.222;2024-03-29T06:34:44;94741.16;;;11.13;45.09
13581;BME280;6861;46.170;7.222;2024-03-29T06:37:11;94748.03;;;11.31;44.94
13581;BME280;6861;46.170;7.222;2024-03-29T06:39:40;94732.88;;;11.42;44.80
13581;BME280;6861;46.170;7.222;2024-03-29T06:42:07;94736.31;;;11.51;44.12
13581;BME280;6861;46.170;7.222;2024-03-29T06:44:35;94741.72;;;11.55;44.20
13581;BME280;6861;46.170;7.222;2024-03-29T06:47:01;94748.69;;;11.59;43.84
13581;BME280;6861;46.170;7.222;2024-03-29T06:49:28;94734.50;;;11.60;44.43
13581;BME280;6861;46.170;7.222;2024-03-29T06:51:55;94739.75;;;11.60;44.30
13581;BME280;6861;46.170;7.222;2024-03-29T06:54:25;94753.44;;;11.57;44.17
13581;BME280;6861;46.170;7.222;2024-03-29T06:56:55;94747.72;;;11.55;44.26
13581;BME280;6861;46.170;7.222;2024-03-29T06:59:22;94740.34;;;11.57;44.55
13581;BME280;6861;46.170;7.222;2024-03-29T07:01:50;94741.72;;;11.55;44.56
13581;BME280;6861;46.170;7.222;2024-03-29T07:04:19;94741.47;;;11.65;44.35
13581;BME280;6861;46.170;7.222;2024-03-29T07:06:46;94739.25;;;11.80;44.33
13581;BME280;6861;46.170;7.222;2024-03-29T07:09:16;94738.13;;;12.04;43.16
13581;BME280;6861;46.170;7.222;2024-03-29T07:11:45;94737.06;;;12.22;43.01
13581;BME280;6861;46.170;7.222;2024-03-29T07:14:15;94739.13;;;12.42;42.51
13581;BME280;6861;46.170;7.222;2024-03-29T07:16:42;94741.31;;;12.58;43.07
13581;BME280;6861;46.170;7.222;2024-03-29T07:19:10;94742.28;;;12.79;42.44
13581;BME280;6861;46.170;7.222;2024-03-29T07:21:38;94730.69;;;12.97;41.70
13581;BME280;6861;46.170;7.222;2024-03-29T07:24:05;94720.66;;;13.17;41.35
13581;BME280;6861;46.170;7.222;2024-03-29T07:26:33;94732.69;;;13.35;41.74
13581;BME280;6861;46.170;7.222;2024-03-29T07:29:00;94747.34;;;13.53;41.67
13581;BME280;6861;46.170;7.222;2024-03-29T07:31:29;94729.03;;;13.74;41.44
13581;BME280;6861;46.170;7.222;2024-03-29T07:33:56;94719.53;;;13.90;40.59
13581;BME280;6861;46.170;7.222;2024-03-29T07:36:23;94724.41;;;14.09;41.22
13581;BME280;6861;46.170;7.222;2024-03-29T07:38:53;94734.94;;;14.38;40.61
13581;BME280;6861;46.170;7.222;2024-03-29T07:41:19;94730.19;;;14.82;39.89
13581;BME280;6861;46.170;7.222;2024-03-29T07:43:52;94740.06;;;15.27;39.38
13581;BME280;6861;46.170;7.222;2024-03-29T07:46:20;94737.06;;;15.49;39.66
13581;BME280;6861;46.170;7.222;2024-03-29T07:48:49;94732.84;;;15.81;39.91
13581;BME280;6861;46.170;7.222;2024-03-29T07:51:16;94738.84;;;16.27;39.46
13581;BME280;6861;46.170;7.222;2024-03-29T07:53:43;94743.69;;;16.37;39.16
13581;BME280;6861;46.170;7.222;2024-03-29T07:56:11;94731.25;;;16.25;39.41
13581;BME280;6861;46.170;7.222;2024-03-29T07:58:38;94738.06;;;16.02;39.66
13581;BME280;6861;46.170;7.222;2024-03-29T08:01:05;94746.28;;;15.88;39.87
13581;BME280;6861;46.170;7.222;2024-03-29T08:03:32;94740.84;;;15.72;39.94
13581;BME280;6861;46.170;7.222;2024-03-29T08:06:03;94718.91;;;15.93;39.49
13581;BME280;6861;46.170;7.222;2024-03-29T08:08:30;94739.81;;;16.10;39.24
13581;BME280;6861;46.170;7.222;2024-03-29T08:10:58;94739.59;;;16.15;39.24
13581;BME280;6861;46.170;7.222;2024-03-29T08:13:26;94730.81;;;16.11;39.15
13581;BME280;6861;46.170;7.222;2024-03-29T08:15:56;94726.28;;;15.87;39.22
13581;BME280;6861;46.170;7.222;2024-03-29T08:18:25;94727.75;;;15.64;40.16
13581;BME280;6861;46.170;7.222;2024-03-29T08:20:53;94737.28;;;15.56;40.23
13581;BME280;6861;46.170;7.222;2024-03-29T08:23:22;94746.06;;;15.48;40.23
13581;BME280;6861;46.170;7.222;2024-03-29T08:25:50;94737.72;;;15.46;40.04
13581;BME280;6861;46.170;7.222;2024-03-29T08:28:17;94724.75;;;15.53;39.33
13581;BME280;6861;46.170;7.222;2024-03-29T08:30:45;94716.13;;;15.77;38.90
13581;BME280;6861;46.170;7.222;2024-03-29T08:33:12;94727.56;;;16.54;37.49
13581;BME280;6861;46.170;7.222;2024-03-29T08:35:39;94717.66;;;17.59;36.08
13581;BME280;6861;46.170;7.222;2024-03-29T08:38:09;94725.22;;;18.20;35.84
13581;BME280;6861;46.170;7.222;2024-03-29T08:40:37;94725.78;;;18.61;35.46
13581;BME280;6861;46.170;7.222;2024-03-29T08:43:07;94716.69;;;18.78;34.90
13581;BME280;6861;46.170;7.222;2024-03-29T08:45:35;94722.97;;;19.27;34.57
13581;BME280;6861;46.170;7.222;2024-03-29T08:48:06;94724.81;;;19.85;34.03
13581;BME280;6861;46.170;7.222;2024-03-29T08:50:34;94730.31;;;20.45;33.13
13581;BME280;6861;46.170;7.222;2024-03-29T08:53:01;94715.41;;;21.23;32.37
13581;BME280;6861;46.170;7.222;2024-03-29T08:55:29;94712.81;;;21.67;32.01
13581;BME280;6861;46.170;7.222;2024-03-29T08:57:58;94709.00;;;22.53;30.85
13581;BME280;6861;46.170;7.222;2024-03-29T09:00:25;94704.81;;;23.42;29.87
13581;BME280;6861;46.170;7.222;2024-03-29T09:02:53;94710.53;;;23.41;29.89
13581;BME280;6861;46.170;7.222;2024-03-29T09:05:20;94721.47;;;23.04;30.15
13581;BME280;6861;46.170;7.222;2024-03-29T09:07:48;94726.59;;;22.68;30.41
13581;BME280;6861;46.170;7.222;2024-03-29T09:10:16;94717.13;;;22.19;30.49
13581;BME280;6861;46.170;7.222;2024-03-29T09:12:43;94725.13;;;21.79;30.66
13581;BME280;6861;46.170;7.222;2024-03-29T09:15:12;94724.97;;;22.02;30.43
13581;BME280;6861;46.170;7.222;2024-03-29T09:17:41;94722.56;;;22.34;30.44
13581;BME280;6861;46.170;7.222;2024-03-29T09:20:09;94718.13;;;22.52;30.32
13581;BME280;6861;46.170;7.222;2024-03-29T09:22:37;94706.78;;;22.69;29.49
13581;BME280;6861;46.170;7.222;2024-03-29T09:25:05;94700.88;;;22.97;28.61
13581;BME280;6861;46.170;7.222;2024-03-29T09:27:34;94701.75;;;23.26;28.25
13581;BME280;6861;46.170;7.222;2024-03-29T09:30:03;94701.25;;;22.99;28.42
13581;BME280;6861;46.170;7.222;2024-03-29T09:32:32;94691.69;;;22.91;27.87
13581;BME280;6861;46.170;7.222;2024-03-29T09:35:00;94692.56;;;23.13;27.93
13581;BME280;6861;46.170;7.222;2024-03-29T09:37:27;94689.28;;;23.62;27.35
13581;BME280;6861;46.170;7.222;2024-03-29T09:39:54;94685.13;;;24.07;26.72
13581;BME280;6861;46.170;7.222;2024-03-29T09:42:22;94669.81;;;24.40;26.16
13581;BME280;6861;46.170;7.222;2024-03-29T09:44:51;94678.09;;;25.09;25.58
13581;BME280;6861;46.170;7.222;2024-03-29T09:47:22;94659.78;;;25.70;24.48
13581;BME280;6861;46.170;7.222;2024-03-29T09:49:53;94657.66;;;25.99;24.05
13581;BME280;6861;46.170;7.222;2024-03-29T09:52:22;94662.94;;;26.89;23.63
13581;BME280;6861;46.170;7.222;2024-03-29T09:54:50;94642.13;;;27.84;22.96
13581;BME280;6861;46.170;7.222;2024-03-29T09:57:17;94644.47;;;28.05;22.37
13581;BME280;6861;46.170;7.222;2024-03-29T09:59:44;94640.88;;;28.39;21.46
13581;BME280;6861;46.170;7.222;2024-03-29T10:02:15;94632.41;;;29.56;20.49
13581;BME280;6861;46.170;7.222;2024-03-29T10:04:43;94616.66;;;30.64;20.30
13581;BME280;6861;46.170;7.222;2024-03-29T10:07:14;94620.63;;;31.94;18.98
13581;BME280;6861;46.170;7.222;2024-03-29T10:09:43;94613.75;;;32.84;18.54
13581;BME280;6861;46.170;7.222;2024-03-29T10:12:10;94616.91;;;32.82;18.57
13581;BME280;6861;46.170;7.222;2024-03-29T10:14:45;94624.88;;;31.82;19.02
13581;BME280;6861;46.170;7.222;2024-03-29T10:17:16;94626.00;;;30.76;19.56
13581;BME280;6861;46.170;7.222;2024-03-29T10:19:44;94624.56;;;29.61;20.46
13581;BME280;6861;46.170;7.222;2024-03-29T10:22:13;94617.97;;;29.10;21.23
13581;BME280;6861;46.170;7.222;2024-03-29T10:24:40;94620.97;;;28.56;21.51
13581;BME280;6861;46.170;7.222;2024-03-29T10:27:08;94622.97;;;28.05;21.59
13581;BME280;6861;46.170;7.222;2024-03-29T10:29:35;94610.69;;;27.54;22.08
13581;BME280;6861;46.170;7.222;2024-03-29T10:32:02;94597.22;;;27.58;22.04
13581;BME280;6861;46.170;7.222;2024-03-29T10:34:30;94586.78;;;28.93;20.61
13581;BME280;6861;46.170;7.222;2024-03-29T10:37:01;94601.47;;;30.54;19.35
13581;BME280;6861;46.170;7.222;2024-03-29T10:39:30;94592.97;;;32.24;18.33
13581;BME280;6861;46.170;7.222;2024-03-29T10:41:59;94580.41;;;33.58;17.28
13581;BME280;6861;46.170;7.222;2024-03-29T10:44:28;94572.41;;;34.31;16.93
13581;BME280;6861;46.170;7.222;2024-03-29T10:46:56;94560.16;;;34.81;16.59
13581;BME280;6861;46.170;7.222;2024-03-29T10:49:25;94555.34;;;35.37;16.00
13581;BME280;6861;46.170;7.222;2024-03-29T10:51:55;94552.56;;;36.03;15.47
13581;BME280;6861;46.170;7.222;2024-03-29T10:54:25;94552.41;;;37.33;14.52
13581;BME280;6861;46.170;7.222;2024-03-29T10:56:59;94546.34;;;37.94;14.14
13581;BME280;6861;46.170;7.222;2024-03-29T10:59:31;94549.69;;;38.24;14.13
13581;BME280;6861;46.170;7.222;2024-03-29T11:02:11;94553.75;;;37.08;14.53
13581;BME280;6861;46.170;7.222;2024-03-29T11:04:41;94547.38;;;36.82;14.66
13581;BME280;6861;46.170;7.222;2024-03-29T11:07:20;94546.53;;;36.76;14.85
13581;BME280;6861;46.170;7.222;2024-03-29T11:09:59;94543.06;;;35.65;15.47
13581;BME280;6861;46.170;7.222;2024-03-29T11:12:30;94542.78;;;33.97;16.33
13581;BME280;6861;46.170;7.222;2024-03-29T11:15:02;94548.03;;;33.02;16.97
13581;BME280;6861;46.170;7.222;2024-03-29T11:17:31;94550.41;;;32.12;17.31
13581;BME280;6861;46.170;7.222;2024-03-29T11:19:58;94545.34;;;31.04;17.94
13581;BME280;6861;46.170;7.222;2024-03-29T11:22:27;94533.13;;;29.99;18.91
13581;BME280;6861;46.170;7.222;2024-03-29T11:24:54;94540.34;;;29.05;19.90
13581;BME280;6861;46.170;7.222;2024-03-29T11:27:22;94530.56;;;28.16;20.36
13581;BME280;6861;46.170;7.222;2024-03-29T11:29:53;94530.19;;;27.47;21.48
13581;BME280;6861;46.170;7.222;2024-03-29T11:32:34;94526.38;;;26.91;21.32
13581;BME280;6861;46.170;7.222;2024-03-29T11:35:01;94526.94;;;26.48;22.52
13581;BME280;6861;46.170;7.222;2024-03-29T11:37:29;94516.09;;;26.21;22.57
13581;BME280;6861;46.170;7.222;2024-03-29T11:39:58;94507.56;;;25.99;22.54
13581;BME280;6861;46.170;7.222;2024-03-29T11:42:37;94516.53;;;25.82;22.92
13581;BME280;6861;46.170;7.222;2024-03-29T11:45:07;94511.34;;;25.61;22.88
13581;BME280;6861;46.170;7.222;2024-03-29T11:47:36;94515.34;;;25.38;23.29
13581;BME280;6861;46.170;7.222;2024-03-29T11:50:06;94512.75;;;25.24;23.35
13581;BME280;6861;46.170;7.222;2024-03-29T11:52:35;94502.13;;;25.13;23.64
13581;BME280;6861;46.170;7.222;2024-03-29T11:55:05;94498.41;;;25.04;23.83
13581;BME280;6861;46.170;7.222;2024-03-29T11:57:33;94503.84;;;24.86;23.48
13581;BME280;6861;46.170;7.222;2024-03-29T12:00:07;94510.09;;;24.58;23.83
13581;BME280;6861;46.170;7.222;2024-03-29T12:02:36;94506.38;;;24.34;24.05
13581;BME280;6861;46.170;7.222;2024-03-29T12:05:06;94506.41;;;24.20;24.76
13581;BME280;6861;46.170;7.222;2024-03-29T12:07:35;94509.50;;;24.04;24.47
13581;BME280;6861;46.170;7.222;2024-03-29T12:10:03;94504.97;;;23.94;24.82
13581;BME280;6861;46.170;7.222;2024-03-29T12:12:30;94511.09;;;23.84;25.13
13581;BME280;6861;46.170;7.222;2024-03-29T12:15:03;94504.59;;;23.78;24.83
13581;BME280;6861;46.170;7.222;2024-03-29T12:17:32;94493.91;;;23.78;25.28
13581;BME280;6861;46.170;7.222;2024-03-29T12:19:59;94500.41;;;23.77;25.11
13581;BME280;6861;46.170;7.222;2024-03-29T12:22:31;94503.47;;;23.79;25.01
13581;BME280;6861;46.170;7.222;2024-03-29T12:24:58;94497.34;;;23.89;25.27
13581;BME280;6861;46.170;7.222;2024-03-29T12:27:26;94494.66;;;23.96;24.84
13581;BME280;6861;46.170;7.222;2024-03-29T12:29:53;94503.41;;;24.07;24.94
13581;BME280;6861;46.170;7.222;2024-03-29T12:32:20;94488.44;;;24.24;25.11
13581;BME280;6861;46.170;7.222;2024-03-29T12:34:51;94479.69;;;24.24;24.94
13581;BME280;6861;46.170;7.222;2024-03-29T12:37:21;94481.97;;;24.18;24.84
13581;BME280;6861;46.170;7.222;2024-03-29T12:39:49;94483.91;;;24.10;24.90
13581;BME280;6861;46.170;7.222;2024-03-29T12:42:19;94476.63;;;24.25;24.31
13581;BME280;6861;46.170;7.222;2024-03-29T12:44:47;94469.66;;;24.42;24.75
13581;BME280;6861;46.170;7.222;2024-03-29T12:47:15;94453.22;;;24.47;24.80
13581;BME280;6861;46.170;7.222;2024-03-29T12:49:42;94443.38;;;24.30;24.59
13581;BME280;6861;46.170;7.222;2024-03-29T12:52:11;94449.16;;;24.14;24.99
13581;BME280;6861;46.170;7.222;2024-03-29T12:54:38;94443.88;;;24.00;24.90
13581;BME280;6861;46.170;7.222;2024-03-29T12:57:06;94443.91;;;23.82;25.27
13581;BME280;6861;46.170;7.222;2024-03-29T12:59:33;94455.78;;;23.67;24.98
13581;BME280;6861;46.170;7.222;2024-03-29T13:02:01;94447.03;;;23.63;25.35
13581;BME280;6861;46.170;7.222;2024-03-29T13:04:29;94452.34;;;23.52;25.13
13581;BME280;6861;46.170;7.222;2024-03-29T13:06:57;94443.56;;;23.51;24.90
13581;BME280;6861;46.170;7.222;2024-03-29T13:09:25;94445.88;;;23.49;25.42
13581;BME280;6861;46.170;7.222;2024-03-29T13:11:53;94444.00;;;23.32;25.00
13581;BME280;6861;46.170;7.222;2024-03-29T13:14:20;94437.53;;;23.15;25.34
13581;BME280;6861;46.170;7.222;2024-03-29T13:16:47;94424.94;;;23.12;25.19
13581;BME280;6861;46.170;7.222;2024-03-29T13:19:14;94424.19;;;23.12;25.42